Time;durP1;ratioP1;P1;durP2;ratioP2;P2;SDS_P1;SDS_P2;PMS_P1;PMS_P2;Temp;Humidity;BMP_temperature;BMP_pressure;BME280_temperature;BME280_humidity;BME280_pressure;Samples;Min_cycle;Max_cycle;Signal;HPM_P1;HPM_P2
2023/03/18 00:01:50;;;;;;;17.10;7.80;;;;;;;;;;5062088;28;20028;-74
2023/03/18 00:04:16;;;;;;;20.65;9.55;;;;;;;;;;5067902;28;20057;-74
2023/03/18 00:06:43;;;;;;;17.88;8.93;;;;;;;;;;5069534;28;20039;-74
2023/03/18 00:09:11;;;;;;;20.33;8.35;;;;;;;;;;5066917;28;20024;-74
2023/03/18 00:11:38;;;;;;;18.77;9.25;;;;;;;;;;5068266;28;20037;-74
2023/03/18 00:14:04;;;;;;;23.10;11.82;;;;;;;;;;5067858;28;20102;-74
2023/03/18 00:16:30;;;;;;;22.83;9.32;;;;;;;;;;5064854;28;20029;-74
2023/03/18 00:18:56;;;;;;;16.48;8.88;;;;;;;;;;5071135;28;20024;-74
2023/03/18 00:21:22;;;;;;;16.15;8.93;;;;;;;;;;5052014;28;20099;-74
2023/03/18 00:23:49;;;;;;;17.92;8.73;;;;;;;;;;5063901;28;20108;-74
2023/03/18 00:26:16;;;;;;;18.25;8.35;;;;;;;;;;5074159;28;20033;-74
2023/03/18 00:28:42;;;;;;;17.05;8.80;;;;;;;;;;5065788;28;20031;-74
2023/03/18 00:31:09;;;;;;;16.73;9.38;;;;;;;;;;5066322;28;20147;-74
2023/03/18 00:33:36;;;;;;;15.10;8.45;;;;;;;;;;5071885;28;20032;-74
2023/03/18 00:36:03;;;;;;;19.23;8.68;;;;;;;;;;5070688;28;20039;-74
2023/03/18 00:38:29;;;;;;;16.77;8.20;;;;;;;;;;5048616;28;20454;-74
2023/03/18 00:41:11;;;;;;;15.68;7.82;;;;;;;;;;5069143;28;20052;-74
2023/03/18 00:43:44;;;;;;;16.42;7.35;;;;;;;;;;5066865;28;20028;-74
2023/03/18 00:46:15;;;;;;;17.08;8.18;;;;;;;;;;5063434;28;20075;-74
2023/03/18 00:48:41;;;;;;;16.92;8.07;;;;;;;;;;5066456;28;20064;-74
2023/03/18 00:51:12;;;;;;;18.70;8.23;;;;;;;;;;5061879;28;20036;-74
2023/03/18 00:53:39;;;;;;;18.02;8.80;;;;;;;;;;5072672;28;20052;-74
2023/03/18 00:56:05;;;;;;;25.25;9.70;;;;;;;;;;5067908;28;20051;-74
2023/03/18 00:58:31;;;;;;;18.33;8.88;;;;;;;;;;5068897;28;20070;-74
2023/03/18 01:00:57;;;;;;;17.30;8.70;;;;;;;;;;5076891;28;20550;-74
2023/03/18 01:03:25;;;;;;;19.50;8.63;;;;;;;;;;5063043;28;20052;-74
2023/03/18 01:05:52;;;;;;;18.98;8.95;;;;;;;;;;5041378;28;20072;-74
2023/03/18 01:08:18;;;;;;;16.52;9.15;;;;;;;;;;5046194;28;20057;-74
2023/03/18 01:10:44;;;;;;;24.58;9.68;;;;;;;;;;5047518;28;20057;-74
2023/03/18 01:13:10;;;;;;;20.05;9.27;;;;;;;;;;5047391;28;20029;-74
2023/03/18 01:15:36;;;;;;;25.33;11.45;;;;;;;;;;5047217;28;20024;-74
2023/03/18 01:18:02;;;;;;;25.45;11.50;;;;;;;;;;5042864;28;20535;-74
2023/03/18 01:20:29;;;;;;;21.67;11.02;;;;;;;;;;5040403;28;20033;-74
2023/03/18 01:22:55;;;;;;;17.98;7.97;;;;;;;;;;5044443;28;20048;-74
2023/03/18 01:25:22;;;;;;;22.10;7.40;;;;;;;;;;5052371;28;20039;-74
2023/03/18 01:27:48;;;;;;;17.48;6.15;;;;;;;;;;5045282;28;20066;-74
2023/03/18 01:30:15;;;;;;;15.38;8.35;;;;;;;;;;5048197;28;20040;-74
2023/03/18 01:32:42;;;;;;;14.25;6.75;;;;;;;;;;5049852;28;20029;-74
2023/03/18 01:35:09;;;;;;;10.10;4.68;;;;;;;;;;5053183;28;20064;-74
2023/03/18 01:37:35;;;;;;;20.20;6.18;;;;;;;;;;5048996;28;20028;-74
2023/03/18 01:40:01;;;;;;;11.55;5.15;;;;;;;;;;5047038;28;20028;-74
2023/03/18 01:42:27;;;;;;;13.82;7.68;;;;;;;;;;5047433;28;20040;-74
2023/03/18 01:45:13;;;;;;;28.10;12.75;;;;;;;;;;5050952;28;20075;-74
2023/03/18 01:47:39;;;;;;;22.40;10.73;;;;;;;;;;5038748;28;20028;-74
2023/03/18 01:50:05;;;;;;;21.10;10.02;;;;;;;;;;5046720;28;20036;-74
2023/03/18 01:52:31;;;;;;;19.75;9.35;;;;;;;;;;5045971;28;20361;-74
2023/03/18 01:55:05;;;;;;;20.77;8.20;;;;;;;;;;5040972;28;20045;-74
2023/03/18 01:57:32;;;;;;;22.00;8.60;;;;;;;;;;5039836;28;20033;-74
2023/03/18 01:59:58;;;;;;;17.70;8.50;;;;;;;;;;5049897;28;20041;-74
2023/03/18 02:02:25;;;;;;;16.30;8.13;;;;;;;;;;5048308;28;20133;-74
2023/03/18 02:04:53;;;;;;;17.27;7.05;;;;;;;;;;5067390;28;20048;-74
2023/03/18 02:07:24;;;;;;;18.92;7.57;;;;;;;;;;5063750;28;20029;-74
2023/03/18 02:09:51;;;;;;;15.50;6.97;;;;;;;;;;5060987;28;20032;-74
2023/03/18 02:12:22;;;;;;;13.68;7.35;;;;;;;;;;5065237;28;20115;-74
2023/03/18 02:14:49;;;;;;;21.80;7.57;;;;;;;;;;5068133;28;20084;-74
2023/03/18 02:17:18;;;;;;;13.85;6.05;;;;;;;;;;5072753;28;20056;-74
2023/03/18 02:19:44;;;;;;;16.95;7.75;;;;;;;;;;5067970;28;20063;-74
2023/03/18 02:22:28;;;;;;;12.63;6.18;;;;;;;;;;5066503;28;20039;-74
2023/03/18 02:25:14;;;;;;;17.55;6.93;;;;;;;;;;5060938;28;20072;-74
2023/03/18 02:27:44;;;;;;;18.65;7.97;;;;;;;;;;5070126;28;20470;-74
2023/03/18 02:30:12;;;;;;;17.20;8.18;;;;;;;;;;5067651;28;20029;-74
2023/03/18 02:32:39;;;;;;;13.65;6.47;;;;;;;;;;5051153;28;20032;-74
2023/03/18 02:35:07;;;;;;;18.48;7.10;;;;;;;;;;5067877;28;20036;-74
2023/03/18 02:37:33;;;;;;;15.70;7.18;;;;;;;;;;5065251;28;20031;-74
2023/03/18 02:40:14;;;;;;;13.55;6.85;;;;;;;;;;5064762;28;20036;-74
2023/03/18 02:42:40;;;;;;;16.63;8.23;;;;;;;;;;5069307;28;20119;-74
2023/03/18 02:45:10;;;;;;;16.90;7.07;;;;;;;;;;5070213;28;20039;-75
2023/03/18 02:47:36;;;;;;;16.27;7.32;;;;;;;;;;5060013;28;20032;-75
2023/03/18 02:50:03;;;;;;;16.90;7.30;;;;;;;;;;5067868;28;20037;-74
2023/03/18 02:52:29;;;;;;;16.73;7.22;;;;;;;;;;5058803;28;20033;-75
2023/03/18 02:54:58;;;;;;;13.65;6.72;;;;;;;;;;5074076;28;20059;-74
2023/03/18 02:57:24;;;;;;;14.27;6.90;;;;;;;;;;5058752;28;20024;-75
2023/03/18 02:59:50;;;;;;;16.63;7.20;;;;;;;;;;5067017;28;20025;-74
2023/03/18 03:02:16;;;;;;;13.10;6.32;;;;;;;;;;5068279;28;20036;-74
2023/03/18 03:04:42;;;;;;;14.85;6.35;;;;;;;;;;5047583;28;20052;-74
2023/03/18 03:07:09;;;;;;;14.48;6.13;;;;;;;;;;5047956;28;20103;-74
2023/03/18 03:09:35;;;;;;;14.65;6.22;;;;;;;;;;5052382;28;20143;-74
2023/03/18 03:12:01;;;;;;;13.63;5.43;;;;;;;;;;5051376;28;20143;-75
2023/03/18 03:14:27;;;;;;;14.13;7.00;;;;;;;;;;5052131;28;20032;-75
2023/03/18 03:16:53;;;;;;;13.55;6.32;;;;;;;;;;5048425;28;20029;-74
2023/03/18 03:19:19;;;;;;;16.38;6.90;;;;;;;;;;5044306;28;20021;-74
2023/03/18 03:21:45;;;;;;;15.77;6.43;;;;;;;;;;5051298;28;20036;-74
2023/03/18 03:24:11;;;;;;;14.30;5.78;;;;;;;;;;5050448;28;20040;-75
2023/03/18 03:26:37;;;;;;;11.90;5.55;;;;;;;;;;5049837;28;20037;-75
2023/03/18 03:29:05;;;;;;;14.63;6.68;;;;;;;;;;5051008;28;20059;-75
2023/03/18 03:31:32;;;;;;;11.45;6.03;;;;;;;;;;5050006;28;20086;-74
2023/03/18 03:33:58;;;;;;;18.58;8.30;;;;;;;;;;5052126;28;20037;-75
2023/03/18 03:36:24;;;;;;;17.20;8.02;;;;;;;;;;5048658;28;20036;-75
2023/03/18 03:38:50;;;;;;;19.10;8.52;;;;;;;;;;5044424;28;20474;-74
2023/03/18 03:41:16;;;;;;;19.27;7.13;;;;;;;;;;5042438;28;20057;-75
2023/03/18 03:43:43;;;;;;;14.63;7.50;;;;;;;;;;5048850;28;20053;-75
2023/03/18 03:46:10;;;;;;;17.42;8.43;;;;;;;;;;5050812;28;20467;-75
2023/03/18 03:48:36;;;;;;;18.35;8.50;;;;;;;;;;5057548;28;20033;-74
2023/03/18 03:51:02;;;;;;;20.23;8.52;;;;;;;;;;5050883;28;20151;-75
2023/03/18 03:53:29;;;;;;;22.52;10.77;;;;;;;;;;5051373;28;20033;-75
2023/03/18 03:55:55;;;;;;;25.30;9.02;;;;;;;;;;5049203;28;20451;-75
2023/03/18 03:58:21;;;;;;;24.65;10.27;;;;;;;;;;5044087;28;20475;-75
2023/03/18 04:00:47;;;;;;;24.17;11.30;;;;;;;;;;5040549;28;20386;-75
2023/03/18 04:03:13;;;;;;;19.50;7.93;;;;;;;;;;5057364;28;20060;-75
2023/03/18 04:05:40;;;;;;;20.58;8.73;;;;;;;;;;5060828;28;20466;-75
2023/03/18 04:08:06;;;;;;;15.15;7.00;;;;;;;;;;5063592;28;20477;-74
2023/03/18 04:10:33;;;;;;;19.15;9.88;;;;;;;;;;5069237;28;20033;-74
2023/03/18 04:13:00;;;;;;;15.65;8.05;;;;;;;;;;5066843;28;20025;-75
2023/03/18 04:15:26;;;;;;;18.38;8.70;;;;;;;;;;5065356;28;20032;-75
2023/03/18 04:17:53;;;;;;;17.42;7.80;;;;;;;;;;5066832;28;20056;-75
2023/03/18 04:20:19;;;;;;;15.77;8.00;;;;;;;;;;5070325;28;20033;-75
2023/03/18 04:22:46;;;;;;;14.82;6.90;;;;;;;;;;5066957;28;20032;-75
2023/03/18 04:25:13;;;;;;;15.77;7.90;;;;;;;;;;5069784;28;20151;-75
2023/03/18 04:27:39;;;;;;;15.43;6.95;;;;;;;;;;5065529;28;20068;-75
2023/03/18 04:30:07;;;;;;;16.30;7.10;;;;;;;;;;5067529;28;20157;-75
2023/03/18 04:32:33;;;;;;;18.70;7.45;;;;;;;;;;5071253;28;20025;-75
2023/03/18 04:34:59;;;;;;;17.23;7.20;;;;;;;;;;5069658;28;20489;-75
2023/03/18 04:37:25;;;;;;;20.90;7.55;;;;;;;;;;5070455;28;20031;-75
2023/03/18 04:39:52;;;;;;;12.40;7.10;;;;;;;;;;5071897;28;20044;-75
2023/03/18 04:42:18;;;;;;;19.55;6.97;;;;;;;;;;5072786;28;20024;-75
2023/03/18 04:44:44;;;;;;;13.65;6.25;;;;;;;;;;5070128;28;20399;-75
2023/03/18 04:47:11;;;;;;;12.88;6.63;;;;;;;;;;5068853;28;20029;-75
2023/03/18 04:49:37;;;;;;;18.73;6.13;;;;;;;;;;5070950;28;20038;-75
2023/03/18 04:52:04;;;;;;;15.15;6.32;;;;;;;;;;5069379;28;20484;-75
2023/03/18 04:54:30;;;;;;;19.00;6.85;;;;;;;;;;5069876;28;20044;-75
2023/03/18 04:56:56;;;;;;;15.10;6.78;;;;;;;;;;5067241;28;20027;-75
2023/03/18 04:59:23;;;;;;;16.67;6.60;;;;;;;;;;5069213;28;20386;-75
2023/03/18 05:01:49;;;;;;;13.88;6.97;;;;;;;;;;5080400;28;20032;-75
2023/03/18 05:04:15;;;;;;;14.23;6.60;;;;;;;;;;5046837;28;20054;-75
2023/03/18 05:06:41;;;;;;;16.88;7.05;;;;;;;;;;5048781;28;20351;-75
2023/03/18 05:09:08;;;;;;;18.55;7.40;;;;;;;;;;5046422;28;20033;-75
2023/03/18 05:11:34;;;;;;;15.88;7.75;;;;;;;;;;5047295;28;20025;-75
2023/03/18 05:14:00;;;;;;;13.98;5.35;;;;;;;;;;5046450;28;20029;-75
2023/03/18 05:16:26;;;;;;;17.98;6.75;;;;;;;;;;5048481;28;20056;-75
2023/03/18 05:18:52;;;;;;;14.95;5.93;;;;;;;;;;5047771;28;20525;-75
2023/03/18 05:21:18;;;;;;;17.27;6.57;;;;;;;;;;5049320;28;20567;-74
2023/03/18 05:23:45;;;;;;;13.80;6.00;;;;;;;;;;5027172;28;20706;-75
2023/03/18 05:26:11;;;;;;;14.98;6.80;;;;;;;;;;5048352;28;20095;-75
2023/03/18 05:28:38;;;;;;;15.25;6.10;;;;;;;;;;5047264;28;20084;-75
2023/03/18 05:31:04;;;;;;;17.58;6.30;;;;;;;;;;5022298;28;20029;-75
2023/03/18 05:33:31;;;;;;;15.98;6.38;;;;;;;;;;5043875;28;20624;-75
2023/03/18 05:35:57;;;;;;;14.18;6.20;;;;;;;;;;5048935;28;20021;-75
2023/03/18 05:38:23;;;;;;;13.57;6.00;;;;;;;;;;5048448;28;20033;-75
2023/03/18 05:40:49;;;;;;;15.80;6.05;;;;;;;;;;5048558;28;20025;-75
2023/03/18 05:43:15;;;;;;;10.48;5.50;;;;;;;;;;5047006;28;20079;-75
2023/03/18 05:45:42;;;;;;;13.00;5.25;;;;;;;;;;5049501;28;20379;-75
2023/03/18 05:48:09;;;;;;;20.00;9.60;;;;;;;;;;5043699;28;20041;-75
2023/03/18 05:50:36;;;;;;;18.15;10.30;;;;;;;;;;5045114;28;20470;-75
2023/03/18 05:53:03;;;;;;;19.70;11.48;;;;;;;;;;5047254;28;20041;-75
2023/03/18 05:55:30;;;;;;;19.73;10.90;;;;;;;;;;5048755;28;20348;-75
2023/03/18 05:57:57;;;;;;;20.38;10.27;;;;;;;;;;5047155;28;20036;-75
2023/03/18 06:00:24;;;;;;;15.40;8.40;;;;;;;;;;5048000;28;20379;-75
2023/03/18 06:02:53;;;;;;;18.52;8.40;;;;;;;;;;5048086;28;20462;-75
2023/03/18 06:05:20;;;;;;;23.42;9.10;;;;;;;;;;5047900;28;20470;-75
2023/03/18 06:07:46;;;;;;;16.70;7.95;;;;;;;;;;5053887;28;20028;-75
2023/03/18 06:10:12;;;;;;;24.63;8.57;;;;;;;;;;5048352;28;20071;-75
2023/03/18 06:12:39;;;;;;;12.88;7.25;;;;;;;;;;5045263;28;20037;-75
2023/03/18 06:15:09;;;;;;;18.65;7.88;;;;;;;;;;5045743;28;20040;-75
2023/03/18 06:17:35;;;;;;;20.75;8.00;;;;;;;;;;5047948;28;20029;-75
2023/03/18 06:20:02;;;;;;;18.92;6.97;;;;;;;;;;5041069;28;20033;-75
2023/03/18 06:22:30;;;;;;;17.15;7.25;;;;;;;;;;5047614;28;20076;-75
2023/03/18 06:24:56;;;;;;;13.82;7.07;;;;;;;;;;5048361;28;20156;-75
2023/03/18 06:27:22;;;;;;;14.77;6.93;;;;;;;;;;5047644;28;20633;-75
2023/03/18 06:29:48;;;;;;;16.80;6.90;;;;;;;;;;5046301;28;20044;-75
2023/03/18 06:32:14;;;;;;;14.48;6.85;;;;;;;;;;5047602;28;20029;-76
2023/03/18 06:34:40;;;;;;;14.82;6.47;;;;;;;;;;5047046;28;20032;-76
2023/03/18 06:37:07;;;;;;;20.70;8.57;;;;;;;;;;5049291;28;20075;-75
2023/03/18 06:39:33;;;;;;;15.13;7.63;;;;;;;;;;5046509;28;20033;-75
2023/03/18 06:41:59;;;;;;;13.90;6.90;;;;;;;;;;5047934;28;20390;-75
2023/03/18 06:44:26;;;;;;;13.25;7.53;;;;;;;;;;5041623;28;20730;-76
2023/03/18 06:46:52;;;;;;;18.77;7.55;;;;;;;;;;5047886;28;20036;-75
2023/03/18 06:49:18;;;;;;;16.52;8.35;;;;;;;;;;5045891;28;20040;-75
2023/03/18 06:51:45;;;;;;;16.90;8.80;;;;;;;;;;5044620;28;20033;-75
2023/03/18 06:54:11;;;;;;;17.08;7.53;;;;;;;;;;5044912;28;20037;-75
2023/03/18 06:56:38;;;;;;;17.27;7.80;;;;;;;;;;5046530;28;20071;-75
2023/03/18 06:59:06;;;;;;;17.52;8.60;;;;;;;;;;5044015;28;20021;-75
2023/03/18 07:01:32;;;;;;;22.42;9.38;;;;;;;;;;5043684;28;20036;-75
2023/03/18 07:03:59;;;;;;;18.70;8.35;;;;;;;;;;5053055;28;20535;-75
2023/03/18 07:06:29;;;;;;;18.98;9.00;;;;;;;;;;5065778;28;20039;-75
2023/03/18 07:08:55;;;;;;;20.63;9.25;;;;;;;;;;5065514;28;20029;-75
2023/03/18 07:11:21;;;;;;;12.80;7.13;;;;;;;;;;5062166;28;20454;-75
2023/03/18 07:13:47;;;;;;;16.55;8.45;;;;;;;;;;5060627;28;20075;-76
2023/03/18 07:16:13;;;;;;;17.83;8.00;;;;;;;;;;5062698;28;20031;-74
2023/03/18 07:18:39;;;;;;;16.88;7.05;;;;;;;;;;5068737;28;20499;-75
2023/03/18 07:21:05;;;;;;;17.67;7.60;;;;;;;;;;5063542;28;20047;-75
2023/03/18 07:23:33;;;;;;;19.42;8.77;;;;;;;;;;5064653;28;20037;-75
2023/03/18 07:25:59;;;;;;;18.42;8.52;;;;;;;;;;5062691;28;20488;-75
2023/03/18 07:28:25;;;;;;;14.88;8.10;;;;;;;;;;5067493;28;20474;-75
2023/03/18 07:30:51;;;;;;;17.73;6.75;;;;;;;;;;5065916;28;20028;-75
2023/03/18 07:33:17;;;;;;;12.80;5.97;;;;;;;;;;5062894;28;20047;-74
2023/03/18 07:35:43;;;;;;;15.00;7.13;;;;;;;;;;5064051;28;20504;-74
2023/03/18 07:38:09;;;;;;;9.95;4.78;;;;;;;;;;5061717;28;20047;-74
2023/03/18 07:40:36;;;;;;;9.88;4.93;;;;;;;;;;5060346;28;20371;-74
2023/03/18 07:43:02;;;;;;;10.85;4.53;;;;;;;;;;5065394;28;20553;-74
2023/03/18 07:45:29;;;;;;;15.20;5.38;;;;;;;;;;5061383;28;20036;-75
2023/03/18 07:47:55;;;;;;;10.80;5.10;;;;;;;;;;5063089;28;20038;-75
2023/03/18 07:50:21;;;;;;;13.05;5.40;;;;;;;;;;5058487;28;20048;-74
2023/03/18 07:52:47;;;;;;;12.70;4.53;;;;;;;;;;5070114;28;20111;-75
2023/03/18 07:55:13;;;;;;;11.75;4.65;;;;;;;;;;5065898;28;20041;-75
2023/03/18 07:57:39;;;;;;;9.50;4.10;;;;;;;;;;5063131;28;20055;-75
2023/03/18 08:00:06;;;;;;;9.35;3.90;;;;;;;;;;5066563;28;20125;-74
2023/03/18 08:02:33;;;;;;;9.75;4.25;;;;;;;;;;5066590;28;20025;-74
2023/03/18 08:04:59;;;;;;;10.07;3.45;;;;;;;;;;5068694;28;20091;-75
2023/03/18 08:07:25;;;;;;;13.25;3.72;;;;;;;;;;5066401;28;20032;-75
2023/03/18 08:09:51;;;;;;;12.90;3.58;;;;;;;;;;5066101;28;20029;-75
2023/03/18 08:12:17;;;;;;;8.98;3.10;;;;;;;;;;5068844;28;20123;-76
2023/03/18 08:14:43;;;;;;;9.65;3.95;;;;;;;;;;5072431;28;20028;-77
2023/03/18 08:17:09;;;;;;;12.68;4.20;;;;;;;;;;5066481;28;20029;-75
2023/03/18 08:19:35;;;;;;;6.57;3.35;;;;;;;;;;5074776;28;20028;-75
2023/03/18 08:22:02;;;;;;;9.05;3.38;;;;;;;;;;5070865;28;20447;-76
2023/03/18 08:24:28;;;;;;;13.57;3.75;;;;;;;;;;5065288;28;20032;-75
2023/03/18 08:26:55;;;;;;;10.35;3.60;;;;;;;;;;5064725;28;20036;-74
2023/03/18 08:29:21;;;;;;;9.38;3.33;;;;;;;;;;5066062;28;20436;-74
2023/03/18 08:31:47;;;;;;;12.65;3.80;;;;;;;;;;5061816;28;20036;-74
2023/03/18 08:34:14;;;;;;;7.45;3.40;;;;;;;;;;5068647;28;20048;-74
2023/03/18 08:36:41;;;;;;;9.10;3.33;;;;;;;;;;5064990;28;20429;-75
2023/03/18 08:39:08;;;;;;;14.18;3.17;;;;;;;;;;5067539;28;20033;-75
2023/03/18 08:41:34;;;;;;;10.18;3.38;;;;;;;;;;5066114;28;20107;-75
2023/03/18 08:44:01;;;;;;;9.15;2.47;;;;;;;;;;5066220;28;20944;-75
2023/03/18 08:46:27;;;;;;;6.60;2.00;;;;;;;;;;5066624;28;20033;-75
2023/03/18 08:48:53;;;;;;;6.90;2.40;;;;;;;;;;5066020;28;20032;-74
2023/03/18 08:51:21;;;;;;;7.97;2.40;;;;;;;;;;5067187;28;20590;-74
2023/03/18 08:53:47;;;;;;;6.25;1.77;;;;;;;;;;5062644;28;20556;-74
2023/03/18 08:56:14;;;;;;;9.13;2.38;;;;;;;;;;5058947;28;20200;-74
2023/03/18 08:58:40;;;;;;;9.95;2.10;;;;;;;;;;5066871;28;20111;-74
2023/03/18 09:01:06;;;;;;;8.25;2.40;;;;;;;;;;5048233;28;20048;-74
2023/03/18 09:03:33;;;;;;;8.77;3.05;;;;;;;;;;5056098;28;20048;-74
2023/03/18 09:05:59;;;;;;;9.60;2.40;;;;;;;;;;5046161;28;20420;-74
2023/03/18 09:08:25;;;;;;;9.93;3.03;;;;;;;;;;5045886;28;20075;-74
2023/03/18 09:10:55;;;;;;;6.75;2.28;;;;;;;;;;5047677;28;20484;-74
2023/03/18 09:13:22;;;;;;;7.38;2.30;;;;;;;;;;5049064;28;20869;-74
2023/03/18 09:15:48;;;;;;;7.88;2.60;;;;;;;;;;5048758;28;20029;-74
2023/03/18 09:18:15;;;;;;;7.50;2.10;;;;;;;;;;5047032;28;20033;-74
2023/03/18 09:20:42;;;;;;;5.20;1.52;;;;;;;;;;5041590;28;20071;-74
2023/03/18 09:23:10;;;;;;;4.88;1.70;;;;;;;;;;5048518;28;20775;-75
2023/03/18 09:25:36;;;;;;;5.85;1.80;;;;;;;;;;5045366;28;20029;-74
2023/03/18 09:28:02;;;;;;;7.43;2.00;;;;;;;;;;5045890;28;20140;-74
2023/03/18 09:30:28;;;;;;;6.60;1.67;;;;;;;;;;5044384;28;20537;-74
2023/03/18 09:32:55;;;;;;;8.13;2.67;;;;;;;;;;5048122;28;20112;-75
2023/03/18 09:35:21;;;;;;;9.13;2.00;;;;;;;;;;5046361;28;20036;-74
2023/03/18 09:37:47;;;;;;;6.32;2.10;;;;;;;;;;5027821;28;20410;-75
2023/03/18 09:40:36;;;;;;;7.72;1.95;;;;;;;;;;5047324;28;20084;-74
2023/03/18 09:43:02;;;;;;;6.05;1.73;;;;;;;;;;5035862;28;20053;-74
2023/03/18 09:45:34;;;;;;;8.32;2.35;;;;;;;;;;5045071;28;21084;-74
2023/03/18 09:48:01;;;;;;;4.60;1.83;;;;;;;;;;5046403;28;20078;-74
2023/03/18 09:50:30;;;;;;;6.28;1.83;;;;;;;;;;5040346;28;20060;-74
2023/03/18 09:53:02;;;;;;;7.78;2.05;;;;;;;;;;5045462;28;20072;-74
2023/03/18 09:55:28;;;;;;;;;;;;;;;;;;5041795;28;20032;-75
2023/03/18 09:57:57;;;;;;;5.38;1.73;;;;;;;;;;5042171;28;19913;-74
2023/03/18 10:00:27;;;;;;;6.07;1.60;;;;;;;;;;5043151;28;20127;-74
2023/03/18 10:03:05;;;;;;;6.47;1.92;;;;;;;;;;5052883;28;20040;-74
2023/03/18 10:05:40;;;;;;;8.27;2.63;;;;;;;;;;5062339;28;20044;-74
2023/03/18 10:08:28;;;;;;;7.93;1.88;;;;;;;;;;5064724;28;20549;-74
2023/03/18 10:10:54;;;;;;;9.18;1.90;;;;;;;;;;5063628;28;20036;-74
2023/03/18 10:13:33;;;;;;;10.15;2.42;;;;;;;;;;5064265;28;20482;-74
2023/03/18 10:16:02;;;;;;;9.75;2.15;;;;;;;;;;5044635;28;20135;-74
2023/03/18 10:18:37;;;;;;;7.45;2.28;;;;;;;;;;5064744;28;20040;-75
2023/03/18 10:21:03;;;;;;;9.25;1.90;;;;;;;;;;5062080;28;20036;-74
2023/03/18 10:23:38;;;;;;;9.60;2.00;;;;;;;;;;5065259;28;20047;-74
2023/03/18 10:26:05;;;;;;;6.18;1.73;;;;;;;;;;5061548;28;20039;-74
2023/03/18 10:28:34;;;;;;;7.50;1.40;;;;;;;;;;5063382;28;20036;-74
2023/03/18 10:31:19;;;;;;;5.90;1.40;;;;;;;;;;5064166;28;20033;-74
2023/03/18 10:34:00;;;;;;;4.28;1.35;;;;;;;;;;5064004;28;20112;-74
2023/03/18 10:36:38;;;;;;;5.72;1.20;;;;;;;;;;5063572;28;20037;-74
2023/03/18 10:39:10;;;;;;;5.40;1.40;;;;;;;;;;5062916;28;20051;-74
2023/03/18 10:41:37;;;;;;;6.15;1.33;;;;;;;;;;5061336;28;20036;-74
2023/03/18 10:44:07;;;;;;;6.22;1.48;;;;;;;;;;5063495;28;20501;-75
2023/03/18 10:46:36;;;;;;;4.63;1.20;;;;;;;;;;5059469;28;20366;-74
2023/03/18 10:49:09;;;;;;;5.28;1.25;;;;;;;;;;5066464;28;20135;-74
2023/03/18 10:51:49;;;;;;;5.32;1.30;;;;;;;;;;5061839;28;20028;-75
2023/03/18 10:54:36;;;;;;;5.65;1.40;;;;;;;;;;5066346;28;20029;-74
2023/03/18 10:57:02;;;;;;;5.30;1.25;;;;;;;;;;5058107;28;20042;-74
2023/03/18 10:59:28;;;;;;;4.50;1.20;;;;;;;;;;5066015;28;20548;-74
2023/03/18 11:01:59;;;;;;;9.80;1.75;;;;;;;;;;5061280;28;20438;-74
2023/03/18 11:04:27;;;;;;;7.25;1.83;;;;;;;;;;5066473;28;20053;-74
2023/03/18 11:07:03;;;;;;;4.15;1.20;;;;;;;;;;5064094;28;20060;-74
2023/03/18 11:09:35;;;;;;;4.32;1.20;;;;;;;;;;5042835;28;20041;-74
2023/03/18 11:12:27;;;;;;;5.80;1.65;;;;;;;;;;5047862;28;20045;-74
2023/03/18 11:14:55;;;;;;;6.75;1.42;;;;;;;;;;5057499;28;20044;-74
2023/03/18 11:17:29;;;;;;;4.65;1.58;;;;;;;;;;5064719;28;20102;-74
2023/03/18 11:20:15;;;;;;;6.60;1.75;;;;;;;;;;5062601;28;20035;-74
2023/03/18 11:22:45;;;;;;;7.45;1.50;;;;;;;;;;5065572;28;20028;-74
2023/03/18 11:25:23;;;;;;;4.60;1.45;;;;;;;;;;5062714;28;20177;-74
2023/03/18 11:27:51;;;;;;;5.97;1.65;;;;;;;;;;5062716;28;20036;-74
2023/03/18 11:30:24;;;;;;;6.25;1.30;;;;;;;;;;5067519;28;20025;-74
2023/03/18 11:32:58;;;;;;;5.65;1.65;;;;;;;;;;5070126;28;20059;-74
2023/03/18 11:35:25;;;;;;;4.90;1.90;;;;;;;;;;5047563;28;20039;-74
2023/03/18 11:37:51;;;;;;;4.68;1.30;;;;;;;;;;5064924;28;20056;-74
2023/03/18 11:40:19;;;;;;;7.55;1.90;;;;;;;;;;5055218;28;20033;-74
2023/03/18 11:42:47;;;;;;;6.68;1.88;;;;;;;;;;5067505;28;20029;-74
2023/03/18 11:45:26;;;;;;;5.68;1.75;;;;;;;;;;5066939;28;20055;-74
2023/03/18 11:47:53;;;;;;;7.18;1.90;;;;;;;;;;5066510;28;20534;-74
2023/03/18 11:50:29;;;;;;;9.70;3.17;;;;;;;;;;5068024;28;20117;-74
2023/03/18 11:53:04;;;;;;;5.03;2.38;;;;;;;;;;5063855;28;20035;-74
2023/03/18 11:55:34;;;;;;;15.00;2.05;;;;;;;;;;5066167;28;20749;-74
2023/03/18 11:58:16;;;;;;;8.82;2.00;;;;;;;;;;5064766;28;20544;-74
2023/03/18 12:00:54;;;;;;;10.88;1.63;;;;;;;;;;5068311;28;20032;-74
2023/03/18 12:03:22;;;;;;;6.28;1.88;;;;;;;;;;5053428;28;20053;-74
2023/03/18 12:06:01;;;;;;;6.78;2.15;;;;;;;;;;5065372;28;20064;-74
2023/03/18 12:08:36;;;;;;;7.00;1.88;;;;;;;;;;5065901;28;20040;-74
2023/03/18 12:11:15;;;;;;;7.45;1.60;;;;;;;;;;5065562;28;20068;-74
2023/03/18 12:13:43;;;;;;;7.68;2.17;;;;;;;;;;5063238;28;20509;-74
2023/03/18 12:16:13;;;;;;;6.82;1.95;;;;;;;;;;5062748;28;20033;-74
2023/03/18 12:18:49;;;;;;;8.00;1.58;;;;;;;;;;5064945;28;20070;-74
2023/03/18 12:21:22;;;;;;;6.80;1.77;;;;;;;;;;5065966;28;20100;-74
2023/03/18 12:24:07;;;;;;;7.20;1.33;;;;;;;;;;5064894;28;20083;-74
2023/03/18 12:26:54;;;;;;;5.88;1.92;;;;;;;;;;5067485;28;20028;-74
2023/03/18 12:29:32;;;;;;;5.45;1.70;;;;;;;;;;5059561;28;20039;-74
2023/03/18 12:32:05;;;;;;;5.28;1.92;;;;;;;;;;5063933;28;20448;-74
2023/03/18 12:34:33;;;;;;;6.60;2.22;;;;;;;;;;5063379;28;20056;-74
2023/03/18 12:37:05;;;;;;;7.30;2.30;;;;;;;;;;5056302;28;20033;-74
2023/03/18 12:39:32;;;;;;;;;;;;;;;;;;5066317;28;20052;-74
2023/03/18 12:42:01;;;;;;;6.45;1.95;;;;;;;;;;5066184;28;19920;-74
2023/03/18 12:44:36;;;;;;;6.00;1.90;;;;;;;;;;5060135;28;20040;-74
2023/03/18 12:47:08;;;;;;;8.65;2.42;;;;;;;;;;5060097;28;20070;-74
2023/03/18 12:49:39;;;;;;;6.60;2.78;;;;;;;;;;5067110;28;20063;-74
2023/03/18 12:52:08;;;;;;;7.37;2.03;;;;;;;;;;5055939;28;20610;-74
2023/03/18 12:54:39;;;;;;;9.00;2.65;;;;;;;;;;5066794;28;20104;-74
2023/03/18 12:57:25;;;;;;;6.37;2.10;;;;;;;;;;5057835;28;20035;-74
2023/03/18 12:59:55;;;;;;;6.10;2.10;;;;;;;;;;5066357;28;20415;-74
2023/03/18 13:02:40;;;;;;;9.32;2.38;;;;;;;;;;5062815;28;20170;-74
2023/03/18 13:05:13;;;;;;;9.45;2.80;;;;;;;;;;5040144;28;20076;-74
2023/03/18 13:07:46;;;;;;;7.53;2.88;;;;;;;;;;5046791;28;20048;-74
2023/03/18 13:10:19;;;;;;;9.50;3.28;;;;;;;;;;5053735;28;20075;-74
2023/03/18 13:12:46;;;;;;;8.32;2.72;;;;;;;;;;5045734;28;20064;-74
2023/03/18 13:15:33;;;;;;;6.32;2.65;;;;;;;;;;5047826;28;20029;-74
2023/03/18 13:18:13;;;;;;;8.15;3.13;;;;;;;;;;5045633;28;20533;-74
2023/03/18 13:20:40;;;;;;;7.30;3.38;;;;;;;;;;5042292;28;20124;-74
2023/03/18 13:23:16;;;;;;;8.13;3.10;;;;;;;;;;5047055;28;20060;-74
2023/03/18 13:25:50;;;;;;;7.10;3.30;;;;;;;;;;5047112;28;20037;-74
2023/03/18 13:28:34;;;;;;;7.15;3.17;;;;;;;;;;5045047;28;20051;-74
2023/03/18 13:31:06;;;;;;;8.93;3.55;;;;;;;;;;5048527;28;20065;-74
2023/03/18 13:33:35;;;;;;;7.40;2.80;;;;;;;;;;5047132;28;20553;-74
2023/03/18 13:36:10;;;;;;;13.80;3.00;;;;;;;;;;5027052;28;20132;-74
2023/03/18 13:38:56;;;;;;;8.00;2.90;;;;;;;;;;5044733;28;20020;-74
2023/03/18 13:41:44;;;;;;;7.50;2.60;;;;;;;;;;5045902;28;20036;-74
2023/03/18 13:44:31;;;;;;;8.48;3.38;;;;;;;;;;5046699;28;20152;-74
2023/03/18 13:47:00;;;;;;;8.90;3.55;;;;;;;;;;5043679;28;20412;-74
2023/03/18 13:49:29;;;;;;;8.15;3.10;;;;;;;;;;5049332;28;20032;-74
2023/03/18 13:52:15;;;;;;;6.45;2.70;;;;;;;;;;5042485;28;20111;-74
2023/03/18 13:54:41;;;;;;;5.15;2.40;;;;;;;;;;5046045;28;20056;-74
2023/03/18 13:57:17;;;;;;;8.75;3.30;;;;;;;;;;5039926;28;20053;-74
2023/03/18 13:59:44;;;;;;;7.47;3.20;;;;;;;;;;5042395;28;20029;-74
2023/03/18 14:02:29;;;;;;;9.77;4.00;;;;;;;;;;5043356;28;20355;-74
2023/03/18 14:04:58;;;;;;;10.68;3.17;;;;;;;;;;5062250;28;20049;-74
2023/03/18 14:07:24;;;;;;;7.55;3.55;;;;;;;;;;5053978;28;20035;-74
2023/03/18 14:09:57;;;;;;;8.02;3.15;;;;;;;;;;5051750;28;20032;-74
2023/03/18 14:12:32;;;;;;;7.53;3.17;;;;;;;;;;5063230;28;20123;-74
2023/03/18 14:15:04;;;;;;;8.23;3.33;;;;;;;;;;5061107;28;20037;-74
2023/03/18 14:17:32;;;;;;;11.32;3.70;;;;;;;;;;5062600;28;20454;-74
2023/03/18 14:20:03;;;;;;;5.70;3.00;;;;;;;;;;5062920;28;20120;-74
2023/03/18 14:22:37;;;;;;;9.97;4.10;;;;;;;;;;5060705;28;20037;-74
2023/03/18 14:25:21;;;;;;;10.10;3.80;;;;;;;;;;5062572;28;20035;-74
2023/03/18 14:27:54;;;;;;;8.63;4.30;;;;;;;;;;5059815;28;20212;-74
2023/03/18 14:30:40;;;;;;;11.20;3.95;;;;;;;;;;5057451;28;20040;-74
2023/03/18 14:33:19;;;;;;;9.85;3.65;;;;;;;;;;5061413;28;20078;-74
2023/03/18 14:35:57;;;;;;;7.13;3.60;;;;;;;;;;5056706;28;20639;-74
2023/03/18 14:38:35;;;;;;;8.85;3.22;;;;;;;;;;5065150;28;20040;-75
2023/03/18 14:41:02;;;;;;;9.20;3.45;;;;;;;;;;5060668;28;20043;-74
2023/03/18 14:43:28;;;;;;;11.18;4.38;;;;;;;;;;5036068;28;20037;-74
2023/03/18 14:45:59;;;;;;;13.38;5.72;;;;;;;;;;5062255;28;20565;-74
2023/03/18 14:48:30;;;;;;;11.45;4.22;;;;;;;;;;5064226;28;20037;-74